createdAt,value
2017-12-21T00:00:25.180Z,89.29
2017-12-21T00:02:53.494Z,89.30
2017-12-21T00:05:21.811Z,89.34
2017-12-21T00:07:50.120Z,89.54
2017-12-21T00:10:19.205Z,89.66
2017-12-21T00:12:47.511Z,89.69
2017-12-21T00:15:15.814Z,89.74
2017-12-21T00:17:44.134Z,89.86
2017-12-21T00:20:12.465Z,89.90
2017-12-21T00:22:41.648Z,90.00
2017-12-21T00:25:09.952Z,90.02
2017-12-21T00:27:39.111Z,90.09
2017-12-21T00:30:07.430Z,90.05
2017-12-21T00:32:36.501Z,90.15
2017-12-21T00:35:04.907Z,90.22
2017-12-21T00:37:33.993Z,90.24
2017-12-21T00:40:03.911Z,90.29
2017-12-21T00:42:32.232Z,90.36
2017-12-21T00:45:00.541Z,90.40
2017-12-21T00:47:28.862Z,90.48
2017-12-21T00:49:57.222Z,90.51
2017-12-21T00:52:25.533Z,90.54
2017-12-21T00:54:53.836Z,90.60
2017-12-21T00:57:22.146Z,90.58
2017-12-21T00:59:50.613Z,90.62
2017-12-21T01:02:18.945Z,90.60
2017-12-21T01:04:47.273Z,90.67
2017-12-21T01:07:15.600Z,90.75
2017-12-21T01:09:43.913Z,90.77
2017-12-21T01:12:13.007Z,90.79
2017-12-21T01:14:42.103Z,90.69
2017-12-21T01:17:10.423Z,90.74
2017-12-21T01:19:38.742Z,90.69
2017-12-21T01:22:07.071Z,90.73
2017-12-21T01:24:36.164Z,90.78
2017-12-21T01:27:05.251Z,90.78
2017-12-21T01:29:34.383Z,90.75
2017-12-21T01:32:02.702Z,90.85
2017-12-21T01:34:31.034Z,90.82
2017-12-21T01:36:59.350Z,90.88
2017-12-21T01:39:27.661Z,90.84
2017-12-21T01:41:55.986Z,90.95
2017-12-21T01:44:24.318Z,90.97
2017-12-21T01:46:52.637Z,91.01
2017-12-21T01:49:21.713Z,91.09
2017-12-21T01:51:50.015Z,91.21
2017-12-21T01:54:19.090Z,91.23
2017-12-21T01:56:47.407Z,91.26
2017-12-21T01:59:15.733Z,91.29
2017-12-21T02:01:44.053Z,91.21
2017-12-21T02:04:13.132Z,91.29
2017-12-21T02:06:41.427Z,91.27
2017-12-21T02:09:11.286Z,91.36
2017-12-21T02:11:39.624Z,91.38
2017-12-21T02:14:07.945Z,91.37
2017-12-21T02:16:36.268Z,91.38
2017-12-21T02:19:04.580Z,91.38
2017-12-21T02:21:33.651Z,91.36
2017-12-21T02:24:01.973Z,91.46
2017-12-21T02:26:31.051Z,91.51
2017-12-21T02:29:00.132Z,91.50
2017-12-21T02:31:28.464Z,91.44
2017-12-21T02:33:56.771Z,91.52
2017-12-21T02:36:25.089Z,91.55
2017-12-21T02:38:53.404Z,91.57
2017-12-21T02:41:21.743Z,91.52
2017-12-21T02:43:50.064Z,91.51
2017-12-21T02:46:18.363Z,91.50
2017-12-21T02:48:46.690Z,91.57
2017-12-21T02:51:15.014Z,91.52
2017-12-21T02:53:43.345Z,91.50
2017-12-21T02:56:11.738Z,91.62
2017-12-21T02:58:40.063Z,91.52
2017-12-21T03:01:08.375Z,91.58
2017-12-21T03:03:36.687Z,91.63
2017-12-21T03:06:04.997Z,91.64
2017-12-21T03:08:34.057Z,91.67
2017-12-21T03:11:02.355Z,91.68
2017-12-21T03:13:30.678Z,91.74
2017-12-21T03:15:58.991Z,91.72
2017-12-21T03:18:27.303Z,91.75
2017-12-21T03:20:55.611Z,91.84
2017-12-21T03:23:24.097Z,91.82
2017-12-21T03:25:52.407Z,91.81
2017-12-21T03:28:20.709Z,91.88
2017-12-21T03:30:49.008Z,91.87
2017-12-21T03:33:18.121Z,91.72
2017-12-21T03:35:47.195Z,91.77
2017-12-21T03:38:16.177Z,91.75
2017-12-21T03:40:44.479Z,91.81
2017-12-21T03:43:12.789Z,91.79
2017-12-21T03:45:41.884Z,91.83
2017-12-21T03:48:10.979Z,91.86
2017-12-21T03:50:40.067Z,91.86
2017-12-21T03:53:08.441Z,91.89
2017-12-21T03:55:36.713Z,91.91
2017-12-21T03:58:05.091Z,91.90
2017-12-21T04:00:33.399Z,91.92
2017-12-21T04:03:01.730Z,91.94
2017-12-21T04:05:30.047Z,91.99
2017-12-21T04:07:58.379Z,91.98
2017-12-21T04:10:26.681Z,92.00
2017-12-21T04:12:54.994Z,91.94
2017-12-21T04:15:23.319Z,91.94
2017-12-21T04:17:51.634Z,92.01
2017-12-21T04:20:19.926Z,91.93
2017-12-21T04:22:48.362Z,91.89
2017-12-21T04:25:16.661Z,91.87
2017-12-21T04:27:44.983Z,91.89
2017-12-21T04:30:13.296Z,91.92
2017-12-21T04:32:42.365Z,91.98
2017-12-21T04:35:10.670Z,91.98
2017-12-21T04:37:39.752Z,91.99
2017-12-21T04:40:08.061Z,91.92
2017-12-21T04:42:37.141Z,91.95
2017-12-21T04:45:05.481Z,91.95
2017-12-21T04:47:33.791Z,91.99
2017-12-21T04:50:02.203Z,91.95
2017-12-21T04:52:31.260Z,92.02
2017-12-21T04:54:59.557Z,92.07
2017-12-21T04:57:27.879Z,92.04
2017-12-21T04:59:56.223Z,92.02
2017-12-21T05:02:24.535Z,92.05
2017-12-21T05:04:52.858Z,92.12
2017-12-21T05:07:21.153Z,92.15
2017-12-21T05:09:49.490Z,92.18
2017-12-21T05:12:17.795Z,92.23
2017-12-21T05:14:47.304Z,92.22
2017-12-21T05:17:15.628Z,92.12
2017-12-21T05:19:43.946Z,92.13
2017-12-21T05:22:12.262Z,92.17
2017-12-21T05:24:40.585Z,92.18
2017-12-21T05:27:09.664Z,92.17
2017-12-21T05:29:38.064Z,92.16
2017-12-21T05:32:07.148Z,91.99
2017-12-21T05:34:35.464Z,91.87
2017-12-21T05:37:03.770Z,91.86
2017-12-21T05:39:32.095Z,91.94
2017-12-21T05:42:00.444Z,91.97
2017-12-21T05:44:28.730Z,91.84
2017-12-21T05:46:57.112Z,91.78
2017-12-21T05:49:25.434Z,91.79
2017-12-21T05:51:53.744Z,91.83
2017-12-21T05:54:22.056Z,91.89
2017-12-21T05:56:50.391Z,91.83
2017-12-21T05:59:19.480Z,91.85
2017-12-21T06:01:48.562Z,91.76
2017-12-21T06:04:16.874Z,91.72
2017-12-21T06:06:45.952Z,91.75
2017-12-21T06:09:14.278Z,91.71
2017-12-21T06:11:42.580Z,91.70
2017-12-21T06:14:11.086Z,91.74
2017-12-21T06:16:39.396Z,91.76
2017-12-21T06:19:08.492Z,91.72
2017-12-21T06:21:37.554Z,91.68
2017-12-21T06:24:05.854Z,91.70
2017-12-21T06:26:34.226Z,91.67
2017-12-21T06:29:02.603Z,91.49
2017-12-21T06:31:30.932Z,91.48
2017-12-21T06:34:00.022Z,91.34
2017-12-21T06:36:29.210Z,91.18
2017-12-21T06:38:57.570Z,91.24
2017-12-21T06:41:26.646Z,91.04
2017-12-21T06:43:54.964Z,91.07
2017-12-21T06:46:23.271Z,91.03
2017-12-21T06:48:52.370Z,91.00
2017-12-21T06:51:21.466Z,90.92
2017-12-21T06:53:50.542Z,90.82
2017-12-21T06:56:18.856Z,90.75
2017-12-21T06:58:47.978Z,90.67
2017-12-21T07:01:16.276Z,90.64
2017-12-21T07:03:44.583Z,90.69
2017-12-21T07:06:12.876Z,90.73
2017-12-21T07:08:41.277Z,90.70
2017-12-21T07:11:10.382Z,90.64
2017-12-21T07:13:39.473Z,90.67
2017-12-21T07:16:08.581Z,90.67
2017-12-21T07:18:36.916Z,90.73
2017-12-21T07:21:05.248Z,90.73
2017-12-21T07:23:34.366Z,90.72
2017-12-21T07:26:02.690Z,90.68
2017-12-21T07:28:31.041Z,90.69
2017-12-21T07:30:59.368Z,90.74
2017-12-21T07:33:27.800Z,90.73
2017-12-21T07:35:56.120Z,90.77
2017-12-21T07:38:24.460Z,90.79
2017-12-21T07:40:52.760Z,90.75
2017-12-21T07:43:21.128Z,90.67
2017-12-21T07:45:49.452Z,90.68
2017-12-21T07:48:17.776Z,90.67
2017-12-21T07:50:46.081Z,90.66
2017-12-21T07:53:14.450Z,90.63
2017-12-21T07:55:42.788Z,90.59
2017-12-21T07:58:11.097Z,90.59
2017-12-21T08:00:40.190Z,90.62
2017-12-21T08:03:09.249Z,90.67
2017-12-21T08:05:37.564Z,90.62
2017-12-21T08:08:06.644Z,90.62
2017-12-21T08:10:34.968Z,90.66
2017-12-21T08:13:03.278Z,90.67
2017-12-21T08:15:31.594Z,90.62
2017-12-21T08:17:59.912Z,90.58
2017-12-21T08:20:28.228Z,90.57
2017-12-21T08:22:56.576Z,90.56
2017-12-21T08:25:24.888Z,90.45
2017-12-21T08:27:53.194Z,90.34
2017-12-21T08:30:21.528Z,90.28
2017-12-21T08:32:49.852Z,90.25
2017-12-21T08:35:18.175Z,90.17
2017-12-21T08:37:47.292Z,90.06
2017-12-21T08:40:15.601Z,90.16
2017-12-21T08:42:43.930Z,90.13
2017-12-21T08:45:13.056Z,90.10
2017-12-21T08:47:41.339Z,90.04
2017-12-21T08:50:09.676Z,90.02
2017-12-21T08:52:38.004Z,89.89
2017-12-21T08:55:06.332Z,89.78
2017-12-21T08:57:34.775Z,89.67
2017-12-21T09:00:03.126Z,89.71
2017-12-21T09:02:31.480Z,89.59
2017-12-21T09:04:59.811Z,89.57
2017-12-21T09:07:28.151Z,89.46
2017-12-21T09:09:56.466Z,89.43
2017-12-21T09:12:25.550Z,89.41
2017-12-21T09:14:54.644Z,89.42
2017-12-21T09:17:23.717Z,89.32
2017-12-21T09:19:52.036Z,89.20
2017-12-21T09:22:21.246Z,89.07
2017-12-21T09:24:50.343Z,88.85
2017-12-21T09:27:18.653Z,88.76
2017-12-21T09:29:46.956Z,88.75
2017-12-21T09:32:15.294Z,88.76
2017-12-21T09:34:43.639Z,88.77
2017-12-21T09:37:11.943Z,88.77
2017-12-21T09:39:41.044Z,88.84
2017-12-21T09:42:10.139Z,88.94
2017-12-21T09:44:39.245Z,89.00
2017-12-21T09:47:08.343Z,89.06
2017-12-21T09:49:37.439Z,89.10
2017-12-21T09:52:06.518Z,89.09
2017-12-21T09:54:34.845Z,88.99
2017-12-21T09:57:03.153Z,89.02
2017-12-21T09:59:31.490Z,89.09
2017-12-21T10:02:00.604Z,89.03
2017-12-21T10:04:28.931Z,89.09
2017-12-21T10:06:57.241Z,89.10
2017-12-21T10:09:26.321Z,89.04
2017-12-21T10:11:54.655Z,89.01
2017-12-21T10:14:22.970Z,88.99
2017-12-21T10:16:51.304Z,88.93
2017-12-21T10:19:20.371Z,88.75
2017-12-21T10:21:48.696Z,88.48
2017-12-21T10:24:17.029Z,88.44
2017-12-21T10:26:45.355Z,88.32
2017-12-21T10:29:13.749Z,88.28
2017-12-21T10:31:42.077Z,88.31
2017-12-21T10:34:10.411Z,88.19
2017-12-21T10:36:38.747Z,88.12
2017-12-21T10:39:07.068Z,87.97
2017-12-21T10:41:35.390Z,87.78
2017-12-21T10:44:03.701Z,87.22
2017-12-21T10:46:32.016Z,87.15
2017-12-21T10:49:00.323Z,87.02
2017-12-21T10:51:28.651Z,86.69
2017-12-21T10:53:57.731Z,86.62
2017-12-21T10:56:26.064Z,86.39
2017-12-21T10:58:54.397Z,86.29
2017-12-21T11:01:22.730Z,86.11
2017-12-21T11:03:51.059Z,85.95
2017-12-21T11:06:19.377Z,86.11
2017-12-21T11:08:47.693Z,86.04
2017-12-21T11:11:16.803Z,86.16
2017-12-21T11:13:45.127Z,86.05
2017-12-21T11:16:14.254Z,86.01
2017-12-21T11:18:42.635Z,85.93
2017-12-21T11:21:11.014Z,85.96
2017-12-21T11:23:39.347Z,85.95
2017-12-21T11:26:07.702Z,85.94
2017-12-21T11:28:36.040Z,85.91
2017-12-21T11:31:05.139Z,85.92
2017-12-21T11:33:34.226Z,85.74
2017-12-21T11:36:02.548Z,85.69
2017-12-21T11:38:30.878Z,85.71
2017-12-21T11:40:59.229Z,85.78
2017-12-21T11:43:27.555Z,85.81
2017-12-21T11:45:55.883Z,85.73
2017-12-21T11:48:24.188Z,85.46
2017-12-21T11:50:52.650Z,85.28
2017-12-21T11:53:20.963Z,85.23
2017-12-21T11:55:49.287Z,85.14
2017-12-21T11:58:17.631Z,85.04
2017-12-21T12:00:45.947Z,84.77
2017-12-21T12:03:15.025Z,84.45
2017-12-21T12:05:43.341Z,84.19
2017-12-21T12:08:11.675Z,84.00
2017-12-21T12:10:39.999Z,83.98
2017-12-21T12:13:08.339Z,83.75
2017-12-21T12:15:36.668Z,83.59
2017-12-21T12:18:04.973Z,83.63
2017-12-21T12:20:33.303Z,83.62
2017-12-21T12:23:02.397Z,83.66
2017-12-21T12:25:30.712Z,83.52
2017-12-21T12:27:59.031Z,83.46
2017-12-21T12:30:27.397Z,83.56
2017-12-21T12:32:55.756Z,83.53
2017-12-21T12:35:24.073Z,83.57
2017-12-21T12:37:52.421Z,83.66
2017-12-21T12:40:20.815Z,83.72
2017-12-21T12:42:49.155Z,83.69
2017-12-21T12:45:17.484Z,83.87
2017-12-21T12:47:45.810Z,83.78
2017-12-21T12:50:14.145Z,83.77
2017-12-21T12:52:42.477Z,83.85
2017-12-21T12:55:10.797Z,83.72
2017-12-21T12:57:39.298Z,83.56
2017-12-21T13:00:07.641Z,83.52
2017-12-21T13:02:36.065Z,83.33
2017-12-21T13:05:04.392Z,83.45
2017-12-21T13:07:32.729Z,83.67
2017-12-21T13:10:01.045Z,83.81
2017-12-21T13:12:29.355Z,83.70
2017-12-21T13:14:57.663Z,83.64
2017-12-21T13:17:26.005Z,83.43
2017-12-21T13:19:54.339Z,83.27
2017-12-21T13:22:22.657Z,83.26
2017-12-21T13:24:51.360Z,83.31
2017-12-21T13:27:19.663Z,83.36
2017-12-21T13:29:48.761Z,83.42
2017-12-21T13:32:17.864Z,83.33
2017-12-21T13:34:46.943Z,83.45
2017-12-21T13:37:15.375Z,83.49
2017-12-21T13:39:43.684Z,83.54
2017-12-21T13:42:12.087Z,83.64
2017-12-21T13:44:40.469Z,83.80
2017-12-21T13:47:08.829Z,83.95
2017-12-21T13:49:37.241Z,84.08
2017-12-21T13:52:05.587Z,84.24
2017-12-21T13:54:33.936Z,84.38
2017-12-21T13:57:02.274Z,84.48
2017-12-21T13:59:30.613Z,84.52
2017-12-21T14:01:59.691Z,84.53
2017-12-21T14:04:28.803Z,84.52
2017-12-21T14:06:57.140Z,84.56
2017-12-21T14:09:25.475Z,84.61
2017-12-21T14:11:53.808Z,84.66
2017-12-21T14:14:22.138Z,84.65
2017-12-21T14:16:50.472Z,84.79
2017-12-21T14:19:18.804Z,84.86
2017-12-21T14:21:47.154Z,84.69
2017-12-21T14:24:16.235Z,84.57
2017-12-21T14:26:45.320Z,84.51
2017-12-21T14:29:13.663Z,84.58
2017-12-21T14:31:41.989Z,84.72
2017-12-21T14:34:10.326Z,84.92
2017-12-21T14:36:38.709Z,85.02
2017-12-21T14:39:07.040Z,85.23
2017-12-21T14:41:35.375Z,85.35
2017-12-21T14:44:03.671Z,85.50
2017-12-21T14:46:32.044Z,85.59
2017-12-21T14:49:00.353Z,85.74
2017-12-21T14:51:29.432Z,85.79
2017-12-21T14:53:57.786Z,85.83
2017-12-21T14:56:26.905Z,85.83
2017-12-21T14:58:55.236Z,85.92
2017-12-21T15:01:23.577Z,85.97
2017-12-21T15:03:53.304Z,86.05
2017-12-21T15:06:21.596Z,86.14
2017-12-21T15:08:49.924Z,86.27
2017-12-21T15:11:19.010Z,86.46
2017-12-21T15:13:48.124Z,86.56
2017-12-21T15:16:17.212Z,86.71
2017-12-21T15:18:45.571Z,86.93
2017-12-21T15:21:13.916Z,87.16
2017-12-21T15:23:42.276Z,87.32
2017-12-21T15:26:10.630Z,87.53
2017-12-21T15:28:38.956Z,87.66
2017-12-21T15:31:07.297Z,87.79
2017-12-21T15:33:35.616Z,87.97
2017-12-21T15:36:03.932Z,88.13
2017-12-21T15:38:32.278Z,88.30
2017-12-21T15:41:00.626Z,88.48
2017-12-21T15:43:28.944Z,88.67
2017-12-21T15:45:57.255Z,88.76
2017-12-21T15:48:25.573Z,88.94
2017-12-21T15:50:53.910Z,89.01
2017-12-21T15:53:22.272Z,89.13
2017-12-21T15:55:50.595Z,89.23
2017-12-21T15:58:18.934Z,89.37
2017-12-21T16:00:47.260Z,89.46
2017-12-21T16:03:15.596Z,89.60
2017-12-21T16:05:43.919Z,89.60
2017-12-21T16:08:12.272Z,89.71
2017-12-21T16:10:40.571Z,89.81
2017-12-21T16:13:08.910Z,89.86
2017-12-21T16:15:37.985Z,89.90
2017-12-21T16:18:06.314Z,89.93
2017-12-21T16:20:34.651Z,89.97
2017-12-21T16:23:02.972Z,90.05
2017-12-21T16:25:31.295Z,90.07
2017-12-21T16:27:59.728Z,90.14
2017-12-21T16:30:28.356Z,90.13
2017-12-21T16:32:56.664Z,90.14
2017-12-21T16:35:25.063Z,90.18
2017-12-21T16:37:53.378Z,90.25
2017-12-21T16:40:21.719Z,90.22
2017-12-21T16:42:50.173Z,90.28
2017-12-21T16:45:18.509Z,90.34
2017-12-21T16:47:49.979Z,90.36
2017-12-21T16:50:18.290Z,90.35
2017-12-21T16:52:46.699Z,90.38
2017-12-21T16:55:15.020Z,90.40
2017-12-21T16:57:43.330Z,90.49
2017-12-21T17:00:11.654Z,90.48
2017-12-21T17:02:39.998Z,90.53
2017-12-21T17:05:09.127Z,90.60
2017-12-21T17:07:37.582Z,90.57
2017-12-21T17:10:05.889Z,90.53
2017-12-21T17:12:34.197Z,90.54
2017-12-21T17:15:03.282Z,90.54
2017-12-21T17:17:31.623Z,90.55
2017-12-21T17:19:59.996Z,90.55
2017-12-21T17:22:28.340Z,90.57
2017-12-21T17:24:57.426Z,90.56
2017-12-21T17:27:25.814Z,90.55
2017-12-21T17:29:54.990Z,90.57
2017-12-21T17:32:23.340Z,90.51
2017-12-21T17:34:51.648Z,90.42
2017-12-21T17:37:19.994Z,90.42
2017-12-21T17:39:48.313Z,90.48
2017-12-21T17:42:16.662Z,90.50
2017-12-21T17:44:45.099Z,90.52
2017-12-21T17:47:14.168Z,90.59
2017-12-21T17:49:42.509Z,90.58
2017-12-21T17:52:11.602Z,90.59
2017-12-21T17:54:40.675Z,90.60
2017-12-21T17:57:09.038Z,90.63
2017-12-21T17:59:37.384Z,90.62
2017-12-21T18:02:05.819Z,90.62
2017-12-21T18:04:34.124Z,90.59
2017-12-21T18:07:02.518Z,90.63
2017-12-21T18:09:31.615Z,90.60
2017-12-21T18:12:00.793Z,90.64
2017-12-21T18:14:29.126Z,90.66
2017-12-21T18:16:57.461Z,90.63
2017-12-21T18:19:25.780Z,90.63
2017-12-21T18:21:54.085Z,90.65
2017-12-21T18:24:22.534Z,90.64
2017-12-21T18:26:50.854Z,90.67
2017-12-21T18:29:19.208Z,90.62
2017-12-21T18:31:47.528Z,90.65
2017-12-21T18:34:17.271Z,90.53
2017-12-21T18:36:45.626Z,90.53
2017-12-21T18:39:13.963Z,90.54
2017-12-21T18:41:43.039Z,90.50
2017-12-21T18:44:11.375Z,90.50
2017-12-21T18:46:39.732Z,90.59
2017-12-21T18:49:08.046Z,90.65
2017-12-21T18:51:36.376Z,90.66
2017-12-21T18:54:05.461Z,90.70
2017-12-21T18:56:33.780Z,90.68
2017-12-21T18:59:02.133Z,90.77
2017-12-21T19:01:31.449Z,90.84
2017-12-21T19:04:00.549Z,90.88
2017-12-21T19:06:28.955Z,90.88
2017-12-21T19:08:57.296Z,90.92
2017-12-21T19:11:25.615Z,90.97
2017-12-21T19:13:53.986Z,90.99
2017-12-21T19:16:22.317Z,90.98
2017-12-21T19:18:50.611Z,90.98
2017-12-21T19:21:18.948Z,91.04
2017-12-21T19:23:47.269Z,91.09
2017-12-21T19:26:15.587Z,91.02
2017-12-21T19:28:44.692Z,91.13
2017-12-21T19:31:13.833Z,91.13
2017-12-21T19:33:42.205Z,91.07
2017-12-21T19:36:10.529Z,91.00
2017-12-21T19:38:38.885Z,90.96
2017-12-21T19:41:07.332Z,91.04
2017-12-21T19:43:35.627Z,91.04
2017-12-21T19:46:04.011Z,90.99
2017-12-21T19:48:32.312Z,90.95
2017-12-21T19:51:00.697Z,90.98
2017-12-21T19:53:29.005Z,90.96
2017-12-21T19:55:57.479Z,91.00
2017-12-21T19:58:27.155Z,91.03
2017-12-21T20:00:57.164Z,91.06
2017-12-21T20:03:25.611Z,91.16
2017-12-21T20:05:53.968Z,91.20
2017-12-21T20:08:22.316Z,91.16
2017-12-21T20:10:50.712Z,91.24
2017-12-21T20:13:19.164Z,91.24
2017-12-21T20:15:47.985Z,91.30
2017-12-21T20:18:17.135Z,91.27
2017-12-21T20:20:45.779Z,91.33
2017-12-21T20:23:14.242Z,91.37
2017-12-21T20:25:43.115Z,91.44
2017-12-21T20:28:11.610Z,91.38
2017-12-21T20:30:39.970Z,91.34
2017-12-21T20:33:08.721Z,91.30
2017-12-21T20:35:37.533Z,91.27
2017-12-21T20:38:05.911Z,91.35
2017-12-21T20:40:34.214Z,91.41
2017-12-21T20:43:02.561Z,91.36
2017-12-21T20:45:31.472Z,91.38
2017-12-21T20:48:00.716Z,91.39
2017-12-21T20:50:29.980Z,91.40
2017-12-21T20:52:58.303Z,91.39
2017-12-21T20:55:27.367Z,91.38
2017-12-21T20:57:55.683Z,91.42
2017-12-21T21:00:24.139Z,91.53
2017-12-21T21:02:52.540Z,91.52
2017-12-21T21:05:20.984Z,91.51
2017-12-21T21:07:49.301Z,91.46
2017-12-21T21:10:17.674Z,91.42
2017-12-21T21:12:45.990Z,91.42
2017-12-21T21:15:15.133Z,91.40
2017-12-21T21:17:43.847Z,91.46
2017-12-21T21:20:12.963Z,91.43
2017-12-21T21:25:15.681Z,91.51
2017-12-21T21:27:44.914Z,91.47
2017-12-21T21:30:13.282Z,91.49
2017-12-21T21:32:42.519Z,91.52
2017-12-21T21:35:10.849Z,91.47
2017-12-21T21:37:39.913Z,91.45
2017-12-21T21:40:08.221Z,91.44
2017-12-21T21:42:36.587Z,91.47
2017-12-21T21:45:04.897Z,91.45
2017-12-21T21:47:33.955Z,91.35
2017-12-21T21:50:02.269Z,91.32
2017-12-21T21:52:30.698Z,91.33
2017-12-21T21:54:59.043Z,91.35
2017-12-21T21:57:28.198Z,91.36
2017-12-21T21:59:56.676Z,91.33
2017-12-21T22:02:25.045Z,91.30
2017-12-21T22:04:53.357Z,91.26
2017-12-21T22:07:22.441Z,91.22
2017-12-21T22:09:50.736Z,91.15
2017-12-21T22:12:19.104Z,91.10
2017-12-21T22:14:48.175Z,91.14
2017-12-21T22:17:16.501Z,91.13
2017-12-21T22:19:44.816Z,91.17
2017-12-21T22:22:13.897Z,91.12
2017-12-21T22:24:42.228Z,91.15
2017-12-21T22:27:10.526Z,91.22
2017-12-21T22:29:38.832Z,91.24
2017-12-21T22:32:07.157Z,91.25
2017-12-21T22:34:36.253Z,91.29
2017-12-21T22:37:05.329Z,91.34
2017-12-21T22:39:33.629Z,91.38
2017-12-21T22:42:02.711Z,91.44
2017-12-21T22:44:31.027Z,91.42
2017-12-21T22:46:59.342Z,91.44
2017-12-21T22:49:27.687Z,91.41
2017-12-21T22:51:56.774Z,91.40
2017-12-21T22:54:25.866Z,91.39
2017-12-21T22:56:54.963Z,91.36
2017-12-21T22:59:24.055Z,91.38
2017-12-21T23:01:52.355Z,91.34
2017-12-21T23:04:21.452Z,91.30
2017-12-21T23:06:50.516Z,91.28
2017-12-21T23:09:18.841Z,91.27
2017-12-21T23:11:47.185Z,91.29
2017-12-21T23:14:15.485Z,91.28
2017-12-21T23:16:44.569Z,91.24
2017-12-21T23:19:12.935Z,91.25
2017-12-21T23:21:41.240Z,91.24
2017-12-21T23:24:09.619Z,91.22
2017-12-21T23:26:37.945Z,91.23
2017-12-21T23:29:06.258Z,91.23
2017-12-21T23:31:34.548Z,91.25
2017-12-21T23:34:03.640Z,91.27
2017-12-21T23:36:31.963Z,91.27
2017-12-21T23:39:01.053Z,91.31
2017-12-21T23:41:30.204Z,91.34
2017-12-21T23:43:58.519Z,91.34
2017-12-21T23:46:26.843Z,91.36
2017-12-21T23:48:55.157Z,91.37
2017-12-21T23:51:23.475Z,91.37
2017-12-21T23:53:51.792Z,91.39
2017-12-21T23:56:20.100Z,91.41
2017-12-21T23:58:48.418Z,91.45
